Time;durP1;ratioP1;P1;durP2;ratioP2;P2;SDS_P1;SDS_P2;PMS_P1;PMS_P2;Temp;Humidity;BMP_temperature;BMP_pressure;BME280_temperature;BME280_humidity;BME280_pressure;Samples;Min_cycle;Max_cycle;Signal;HPM_P1;HPM_P2
2022/01/19 00:00:52;;;;;;;2.70;2.10;;;6.70;99.90;;;;;;5063686;28;20690;-68
2022/01/19 00:03:19;;;;;;;3.20;2.00;;;6.60;99.90;;;;;;5061169;28;20215;-67
2022/01/19 00:05:46;;;;;;;3.20;2.30;;;6.60;99.90;;;;;;5064644;28;20771;-67
2022/01/19 00:08:16;;;;;;;2.47;2.00;;;6.70;99.90;;;;;;5065833;28;20197;-68
2022/01/19 00:10:44;;;;;;;2.43;2.00;;;6.60;99.90;;;;;;5065200;28;20579;-68
2022/01/19 00:13:11;;;;;;;2.87;1.87;;;6.70;99.90;;;;;;5054078;28;20198;-73
2022/01/19 00:15:37;;;;;;;2.63;2.00;;;6.60;99.90;;;;;;5060213;28;20237;-75
2022/01/19 00:18:04;;;;;;;2.13;1.80;;;6.60;99.90;;;;;;5065441;28;20191;-70
2022/01/19 00:20:32;;;;;;;2.77;2.00;;;6.60;99.90;;;;;;5063913;28;20678;-74
2022/01/19 00:23:00;;;;;;;4.00;2.10;;;6.60;99.90;;;;;;5060673;28;20206;-71
2022/01/19 00:25:27;;;;;;;4.47;2.47;;;6.60;99.90;;;;;;5062508;28;20226;-68
2022/01/19 00:27:54;;;;;;;3.33;2.40;;;6.70;99.90;;;;;;5057134;28;20260;-68
2022/01/19 00:30:20;;;;;;;2.57;2.03;;;6.70;99.90;;;;;;5062715;28;20186;-68
2022/01/19 00:32:47;;;;;;;2.77;1.90;;;6.70;99.90;;;;;;5067998;28;20196;-68
2022/01/19 00:35:14;;;;;;;3.40;1.90;;;6.70;99.90;;;;;;5058723;28;20236;-68
2022/01/19 00:37:42;;;;;;;2.33;1.57;;;6.60;99.90;;;;;;5066305;28;20684;-68
2022/01/19 00:40:12;;;;;;;2.37;1.77;;;6.70;99.90;;;;;;5066157;28;20195;-68
2022/01/19 00:42:39;;;;;;;3.63;1.70;;;6.70;99.90;;;;;;5058790;28;20268;-70
2022/01/19 00:45:06;;;;;;;3.57;2.10;;;6.60;99.90;;;;;;5064690;28;20230;-70
2022/01/19 00:47:33;;;;;;;2.97;1.80;;;6.70;99.90;;;;;;5060696;28;20197;-71
2022/01/19 00:50:00;;;;;;;4.10;2.00;;;6.70;99.90;;;;;;5060709;28;20656;-70
2022/01/19 00:52:27;;;;;;;3.10;1.97;;;6.70;99.90;;;;;;5063254;28;20675;-72
2022/01/19 00:54:54;;;;;;;5.30;2.40;;;6.70;99.90;;;;;;5058627;28;20223;-70
2022/01/19 00:57:20;;;;;;;5.50;2.50;;;6.60;99.90;;;;;;5068328;28;20198;-70
2022/01/19 00:59:47;;;;;;;4.50;2.27;;;6.60;99.90;;;;;;5062814;28;20538;-68
2022/01/19 01:02:14;;;;;;;8.07;2.97;;;6.60;99.90;;;;;;5070477;28;20194;-67
2022/01/19 01:04:40;;;;;;;6.47;2.60;;;6.70;99.90;;;;;;5074380;28;20266;-68
2022/01/19 01:07:07;;;;;;;5.20;2.33;;;6.60;99.90;;;;;;5065405;28;20215;-68
2022/01/19 01:09:35;;;;;;;4.50;2.13;;;6.70;99.90;;;;;;5072391;28;20606;-68
2022/01/19 01:12:10;;;;;;;5.13;2.80;;;6.70;99.90;;;;;;5061443;28;20248;-68
2022/01/19 01:20:11;;;;;;;3.03;2.10;;;6.60;99.90;;;;;;5062729;28;20200;-68
2022/01/19 01:22:40;;;;;;;2.93;2.40;;;6.70;99.90;;;;;;5063391;28;20202;-68
2022/01/19 01:25:07;;;;;;;3.37;2.40;;;6.70;99.90;;;;;;5067776;28;20519;-68
2022/01/19 01:27:35;;;;;;;2.40;2.10;;;6.70;99.90;;;;;;5063641;28;20199;-68
2022/01/19 01:30:05;;;;;;;2.83;2.37;;;6.70;99.90;;;;;;5058254;28;20194;-68
2022/01/19 01:32:32;;;;;;;2.30;2.10;;;6.60;99.90;;;;;;5066321;28;20264;-68
2022/01/19 01:34:59;;;;;;;3.27;1.93;;;6.60;99.90;;;;;;5067116;28;20223;-68
2022/01/19 01:37:26;;;;;;;2.43;1.93;;;6.70;99.90;;;;;;5061149;28;20609;-68
2022/01/19 01:39:52;;;;;;;3.07;2.30;;;6.70;99.90;;;;;;5061473;28;20202;-68
2022/01/19 01:42:21;;;;;;;4.83;3.40;;;6.70;99.90;;;;;;5061373;28;20691;-67
2022/01/19 01:44:51;;;;;;;3.97;2.60;;;6.80;99.90;;;;;;5067188;28;20210;-68
2022/01/19 01:47:19;;;;;;;3.93;2.73;;;6.70;99.90;;;;;;5059406;28;20227;-68
2022/01/19 01:55:15;;;;;;;4.57;2.70;;;6.70;99.90;;;;;;5067296;28;20213;-68
2022/01/19 01:57:42;;;;;;;3.67;2.30;;;6.70;99.90;;;;;;5073978;28;20195;-68
2022/01/19 02:00:11;;;;;;;4.27;2.97;;;6.70;99.90;;;;;;5060755;28;20191;-67
2022/01/19 02:02:40;;;;;;;3.90;2.70;;;6.70;99.90;;;;;;5060758;28;20461;-68
2022/01/19 02:05:11;;;;;;;2.60;2.40;;;6.70;99.90;;;;;;5063113;28;20297;-74
2022/01/19 02:08:01;;;;;;;5.47;2.43;;;6.70;99.90;;;;;;5059500;28;20193;-70
2022/01/19 02:24:05;;;;;;;3.47;2.50;;;6.60;99.90;;;;;;5061484;28;20222;-68
2022/01/19 02:40:32;;;;;;;3.43;2.60;;;6.60;99.90;;;;;;5063850;28;20211;-67
2022/01/19 02:51:01;;;;;;;4.23;2.97;;;6.50;99.90;;;;;;5060244;28;20198;-68
2022/01/19 02:53:28;;;;;;;3.63;2.43;;;6.60;99.90;;;;;;5063278;28;20221;-68
2022/01/19 02:55:55;;;;;;;3.67;2.50;;;6.60;99.90;;;;;;5059994;28;20653;-67
2022/01/19 02:58:23;;;;;;;5.33;2.40;;;6.60;99.90;;;;;;5063841;28;20195;-67
2022/01/19 03:09:07;;;;;;;2.80;2.50;;;6.60;99.90;;;;;;5064160;28;20654;-68
2022/01/19 03:11:36;;;;;;;3.73;2.57;;;6.60;99.90;;;;;;5065014;28;20199;-68
2022/01/19 03:14:04;;;;;;;3.80;2.50;;;6.60;99.90;;;;;;5070572;28;20211;-68
2022/01/19 03:16:31;;;;;;;4.30;2.90;;;6.60;99.90;;;;;;5066887;28;20204;-67
2022/01/19 03:18:57;;;;;;;5.83;3.10;;;6.60;99.90;;;;;;5065045;28;20629;-68
2022/01/19 03:21:24;;;;;;;6.27;3.03;;;6.60;99.90;;;;;;5064704;28;20219;-68
2022/01/19 03:23:51;;;;;;;4.03;2.67;;;6.70;99.90;;;;;;5063399;28;20624;-68
2022/01/19 03:26:18;;;;;;;5.53;3.00;;;6.60;99.90;;;;;;5074465;28;20220;-67
2022/01/19 03:28:45;;;;;;;3.60;2.57;;;6.50;99.90;;;;;;5063074;28;20192;-68
2022/01/19 03:31:11;;;;;;;4.37;3.00;;;6.50;99.90;;;;;;5068088;28;20291;-68
2022/01/19 03:33:38;;;;;;;5.70;3.03;;;6.50;99.90;;;;;;5065014;28;20229;-67
2022/01/19 03:36:05;;;;;;;3.93;2.80;;;6.40;99.90;;;;;;5060766;28;20201;-68
2022/01/19 03:38:31;;;;;;;7.30;3.00;;;6.40;99.90;;;;;;5064260;28;20324;-68
2022/01/19 03:40:58;;;;;;;4.73;3.10;;;6.40;99.90;;;;;;5067691;28;20252;-68
2022/01/19 03:43:25;;;;;;;5.97;2.87;;;6.50;99.90;;;;;;5058895;28;20238;-67
2022/01/19 03:45:54;;;;;;;3.43;2.63;;;6.50;99.90;;;;;;5060706;28;20218;-68
2022/01/19 03:48:42;;;;;;;5.43;2.57;;;6.40;99.90;;;;;;5062050;28;20195;-68
2022/01/19 03:51:10;;;;;;;6.27;3.17;;;6.40;99.90;;;;;;5064392;28;20195;-68
2022/01/19 03:53:37;;;;;;;4.50;2.80;;;6.40;99.90;;;;;;5058406;28;20232;-67
2022/01/19 03:56:04;;;;;;;4.10;2.80;;;6.40;99.90;;;;;;5056130;28;20244;-68
2022/01/19 03:58:31;;;;;;;6.00;3.40;;;6.50;99.90;;;;;;5058942;28;20205;-68
2022/01/19 04:00:59;;;;;;;4.20;2.93;;;6.50;99.90;;;;;;5065278;28;20207;-68
2022/01/19 04:04:06;;;;;;;3.53;2.67;;;6.50;99.90;;;;;;5062133;28;20214;-68
2022/01/19 04:07:07;;;;;;;7.60;3.60;;;6.40;99.90;;;;;;5056598;28;20217;-67
2022/01/19 04:09:06;;;;;;;6.13;3.60;;;6.30;99.90;;;;;;5049590;28;20587;-68
2022/01/19 04:11:32;;;;;;;4.97;3.23;;;6.10;99.90;;;;;;5064288;28;20191;-67
2022/01/19 04:16:32;;;;;;;4.23;3.13;;;6.00;99.90;;;;;;5057132;28;20198;-68
2022/01/19 04:21:57;;;;;;;6.93;3.13;;;5.70;99.90;;;;;;5047377;28;20691;-67
2022/01/19 04:24:25;;;;;;;5.20;3.43;;;5.60;99.90;;;;;;5061073;28;20218;-68
2022/01/19 04:26:58;;;;;;;5.27;3.33;;;5.50;99.90;;;;;;5065057;28;20218;-67
2022/01/19 04:29:25;;;;;;;5.40;3.30;;;5.30;99.90;;;;;;5056511;28;20198;-68
2022/01/19 04:31:52;;;;;;;5.37;3.70;;;5.20;99.90;;;;;;5065995;28;20200;-68
2022/01/19 04:34:19;;;;;;;6.33;3.60;;;5.10;99.90;;;;;;5065203;28;20217;-68
2022/01/19 04:37:10;;;;;;;6.30;3.60;;;5.00;99.90;;;;;;5062732;28;20212;-68
2022/01/19 05:01:56;;;;;;;5.00;3.27;;;5.20;99.90;;;;;;5061701;28;20198;-69
2022/01/19 05:07:05;;;;;;;6.47;3.23;;;5.20;99.90;;;;;;5061859;28;20301;-66
2022/01/19 05:14:50;;;;;;;4.00;2.87;;;5.30;99.90;;;;;;5061896;28;20688;-69
2022/01/19 05:17:17;;;;;;;5.40;2.87;;;5.30;99.90;;;;;;5065054;28;20210;-67
2022/01/19 05:19:43;;;;;;;3.67;3.00;;;5.30;99.90;;;;;;5063502;28;20231;-67
2022/01/19 05:22:10;;;;;;;4.60;2.90;;;5.30;99.90;;;;;;5059427;28;20194;-67
2022/01/19 05:24:36;;;;;;;4.93;2.80;;;5.20;99.90;;;;;;5063368;28;20214;-67
2022/01/19 05:27:03;;;;;;;6.67;3.20;;;5.20;99.90;;;;;;5056948;28;20211;-67
2022/01/19 05:29:30;;;;;;;5.40;3.70;;;5.20;99.90;;;;;;5058349;28;20198;-67
2022/01/19 05:31:57;;;;;;;4.60;3.00;;;5.30;99.90;;;;;;5061899;28;20645;-68
2022/01/19 05:34:23;;;;;;;6.27;3.63;;;5.30;99.90;;;;;;5067600;28;20214;-68
2022/01/19 05:36:50;;;;;;;4.50;3.10;;;5.30;99.90;;;;;;5070007;28;20301;-71
2022/01/19 05:39:17;;;;;;;11.00;4.17;;;5.30;99.90;;;;;;5066308;28;20193;-70
2022/01/19 05:41:43;;;;;;;9.23;4.47;;;5.40;99.90;;;;;;5059152;28;20198;-72
2022/01/19 05:44:10;;;;;;;11.50;5.10;;;5.40;99.90;;;;;;5067097;28;20214;-73
2022/01/19 05:46:37;;;;;;;9.43;4.23;;;5.40;99.90;;;;;;5061507;28;20612;-71
2022/01/19 05:49:03;;;;;;;6.20;3.43;;;5.50;99.90;;;;;;5067254;28;20609;-72
2022/01/19 05:51:31;;;;;;;6.63;3.47;;;5.50;99.90;;;;;;5065045;28;20202;-71
2022/01/19 05:53:57;;;;;;;4.60;2.87;;;5.50;99.90;;;;;;5064675;28;20218;-71
2022/01/19 05:56:24;;;;;;;4.90;3.40;;;5.50;99.90;;;;;;5061944;28;20198;-68
2022/01/19 05:58:50;;;;;;;4.00;3.07;;;5.50;99.90;;;;;;5066859;28;20201;-68
2022/01/19 06:01:17;;;;;;;7.20;3.50;;;5.60;99.90;;;;;;5055408;28;20202;-68
2022/01/19 06:03:44;;;;;;;7.73;3.50;;;5.60;99.90;;;;;;5066286;28;20268;-67
2022/01/19 06:06:11;;;;;;;6.10;3.13;;;5.60;99.90;;;;;;5059176;28;20198;-67
2022/01/19 06:08:45;;;;;;;5.20;3.43;;;5.60;99.90;;;;;;5056299;28;20217;-68
2022/01/19 06:11:12;;;;;;;6.67;3.10;;;5.80;99.90;;;;;;5061370;28;20243;-67
2022/01/19 06:13:39;;;;;;;4.33;2.93;;;5.70;99.90;;;;;;5058839;28;20314;-70
2022/01/19 06:16:06;;;;;;;6.23;3.50;;;5.80;99.90;;;;;;5057160;28;20195;-69
2022/01/19 06:18:34;;;;;;;5.47;3.40;;;5.70;99.90;;;;;;5057213;28;20285;-70
2022/01/19 06:21:01;;;;;;;5.60;3.23;;;5.60;99.90;;;;;;5062087;28;20535;-69
2022/01/19 06:23:28;;;;;;;3.70;3.00;;;5.60;99.90;;;;;;5061079;28;20214;-72
2022/01/19 06:25:54;;;;;;;5.80;3.50;;;5.60;99.90;;;;;;5068468;28;20197;-72
2022/01/19 06:28:21;;;;;;;4.47;3.40;;;5.60;99.90;;;;;;5058924;28;20226;-70
2022/01/19 06:30:48;;;;;;;5.77;3.23;;;5.70;99.90;;;;;;5062651;28;20286;-69
2022/01/19 06:33:15;;;;;;;4.70;3.13;;;5.70;99.90;;;;;;5064962;28;20281;-68
2022/01/19 06:35:41;;;;;;;5.70;3.60;;;5.70;99.90;;;;;;5056001;28;20197;-71
2022/01/19 06:38:08;;;;;;;7.17;3.93;;;5.80;99.90;;;;;;5061173;28;20206;-69
2022/01/19 06:40:35;;;;;;;5.73;3.53;;;5.70;99.90;;;;;;5051941;28;20203;-68
2022/01/19 06:43:03;;;;;;;6.90;4.23;;;5.80;99.90;;;;;;5056312;28;20210;-69
2022/01/19 06:45:29;;;;;;;6.77;4.43;;;5.80;99.90;;;;;;5062395;28;20197;-69
2022/01/19 06:47:56;;;;;;;8.90;4.80;;;5.80;99.90;;;;;;5064263;28;20241;-72
2022/01/19 06:50:25;;;;;;;9.40;4.97;;;5.70;99.90;;;;;;5055977;28;20196;-69
2022/01/19 06:52:51;;;;;;;8.23;4.90;;;5.80;99.90;;;;;;5061680;28;20195;-70
2022/01/19 06:55:18;;;;;;;8.03;4.50;;;5.80;99.90;;;;;;5056535;28;20213;-69
2022/01/19 06:57:45;;;;;;;6.73;4.63;;;5.60;99.90;;;;;;5068619;28;20670;-70
2022/01/19 07:00:14;;;;;;;7.07;4.57;;;5.40;99.90;;;;;;5065417;28;20620;-70
2022/01/19 07:02:40;;;;;;;7.47;4.50;;;5.20;99.90;;;;;;5054119;28;20213;-69
2022/01/19 07:05:08;;;;;;;10.60;5.20;;;5.10;99.90;;;;;;5060058;28;20687;-69
2022/01/19 07:07:36;;;;;;;9.00;5.00;;;4.90;99.90;;;;;;5062173;28;20238;-70
2022/01/19 07:10:05;;;;;;;7.63;4.80;;;4.70;99.90;;;;;;5060696;28;20262;-69
2022/01/19 07:12:32;;;;;;;10.00;5.33;;;4.60;99.90;;;;;;5060618;28;20194;-69
2022/01/19 07:14:59;;;;;;;9.93;6.00;;;4.50;99.90;;;;;;5062664;28;20225;-70
2022/01/19 07:17:25;;;;;;;10.07;5.57;;;4.30;99.90;;;;;;5058476;28;20651;-69
2022/01/19 07:19:52;;;;;;;8.37;5.07;;;4.20;99.90;;;;;;5062194;28;20203;-70
2022/01/19 07:22:19;;;;;;;7.50;5.27;;;4.10;99.90;;;;;;5051307;28;20203;-71
2022/01/19 07:24:45;;;;;;;9.57;6.13;;;4.00;99.90;;;;;;5057577;28;20228;-70
2022/01/19 07:27:12;;;;;;;9.73;5.60;;;3.90;99.90;;;;;;5059006;28;20695;-69
2022/01/19 07:29:39;;;;;;;9.63;5.80;;;3.90;99.90;;;;;;5057381;28;20209;-72
2022/01/19 07:32:06;;;;;;;9.27;6.13;;;3.90;99.90;;;;;;5059210;28;20193;-69
2022/01/19 07:34:33;;;;;;;9.53;5.47;;;3.90;99.90;;;;;;5059227;28;20521;-67
2022/01/19 07:36:59;;;;;;;9.60;6.13;;;3.80;99.90;;;;;;5057759;28;20258;-70
2022/01/19 07:39:26;;;;;;;9.87;5.93;;;3.80;99.90;;;;;;5057698;28;20568;-67
2022/01/19 07:41:55;;;;;;;12.13;6.40;;;3.60;99.90;;;;;;5059607;28;20285;-66
2022/01/19 07:44:22;;;;;;;11.07;6.57;;;3.60;99.90;;;;;;5057329;28;20221;-65
2022/01/19 07:46:51;;;;;;;12.40;6.60;;;3.50;99.90;;;;;;5056022;28;20210;-66
2022/01/19 07:49:19;;;;;;;12.57;6.83;;;3.50;99.90;;;;;;5057059;28;20639;-66
2022/01/19 07:51:45;;;;;;;10.63;6.67;;;3.50;99.90;;;;;;5056749;28;20190;-66
2022/01/19 07:54:14;;;;;;;10.77;6.43;;;3.60;99.90;;;;;;5058989;28;20216;-67
2022/01/19 07:56:40;;;;;;;12.13;6.80;;;3.50;99.90;;;;;;5055237;28;20189;-65
2022/01/19 07:59:07;;;;;;;11.87;6.90;;;3.70;99.90;;;;;;5056660;28;20664;-65
2022/01/19 08:01:34;;;;;;;13.60;6.93;;;3.70;99.90;;;;;;5056330;28;20203;-67
2022/01/19 08:04:01;;;;;;;13.50;7.53;;;3.70;99.90;;;;;;5056170;28;20226;-66
2022/01/19 08:06:28;;;;;;;12.67;6.53;;;3.60;99.90;;;;;;5057180;28;20203;-65
2022/01/19 08:08:55;;;;;;;12.63;6.73;;;3.70;99.90;;;;;;5059286;28;20235;-67
2022/01/19 08:11:22;;;;;;;12.83;6.83;;;3.70;99.90;;;;;;5063050;28;20738;-67
2022/01/19 08:13:48;;;;;;;13.07;7.07;;;3.70;99.90;;;;;;5061296;28;20225;-68
2022/01/19 08:16:17;;;;;;;13.80;7.77;;;3.80;99.90;;;;;;5061056;28;20200;-66
2022/01/19 08:18:44;;;;;;;11.83;7.10;;;3.80;99.90;;;;;;5060042;28;20207;-67
2022/01/19 08:21:11;;;;;;;13.63;7.60;;;3.70;99.90;;;;;;5060353;28;20213;-68
2022/01/19 08:23:38;;;;;;;11.87;7.50;;;3.80;99.90;;;;;;5061816;28;20308;-66
2022/01/19 08:26:06;;;;;;;12.03;7.20;;;3.80;99.90;;;;;;5062233;28;20671;-66
2022/01/19 08:28:33;;;;;;;12.50;7.00;;;3.80;99.90;;;;;;5063359;28;20217;-66
2022/01/19 08:31:00;;;;;;;14.07;8.00;;;3.90;99.90;;;;;;5058251;28;20207;-66
2022/01/19 08:33:27;;;;;;;15.53;7.63;;;3.90;99.90;;;;;;5059355;28;20228;-66
2022/01/19 08:35:53;;;;;;;16.23;8.13;;;3.90;99.90;;;;;;5061737;28;20204;-66
2022/01/19 08:38:20;;;;;;;15.17;7.70;;;4.00;99.90;;;;;;5064188;28;20210;-68
2022/01/19 08:40:47;;;;;;;13.73;8.13;;;4.10;99.90;;;;;;5062762;28;20341;-66
2022/01/19 08:43:14;;;;;;;14.30;8.33;;;4.10;99.90;;;;;;5061932;28;20205;-67
2022/01/19 08:45:42;;;;;;;13.20;7.50;;;4.10;99.90;;;;;;5061379;28;20208;-67
2022/01/19 08:48:09;;;;;;;14.93;8.13;;;4.20;99.90;;;;;;5062781;28;20229;-66
2022/01/19 08:50:35;;;;;;;14.40;7.67;;;4.40;99.90;;;;;;5063068;28;20205;-66
2022/01/19 08:53:03;;;;;;;17.80;8.27;;;4.40;99.90;;;;;;5060386;28;20202;-67
2022/01/19 08:55:30;;;;;;;16.27;7.80;;;4.40;99.90;;;;;;5061885;28;20608;-68
2022/01/19 08:57:57;;;;;;;15.40;7.90;;;4.40;99.90;;;;;;5060978;28;20276;-68
2022/01/19 09:00:24;;;;;;;14.80;7.70;;;4.50;99.90;;;;;;5058877;28;20285;-67
2022/01/19 09:02:51;;;;;;;13.80;7.70;;;4.60;99.90;;;;;;5059752;28;20199;-67
2022/01/19 09:05:18;;;;;;;13.73;7.67;;;4.60;99.90;;;;;;5058699;28;20602;-66
2022/01/19 09:07:45;;;;;;;15.47;7.30;;;4.60;99.90;;;;;;5062209;28;20218;-67
2022/01/19 09:10:14;;;;;;;14.93;7.60;;;4.60;99.90;;;;;;5058944;28;20194;-66
2022/01/19 09:12:42;;;;;;;12.93;7.37;;;4.70;99.90;;;;;;5061097;28;20241;-67
2022/01/19 09:15:10;;;;;;;13.90;7.73;;;4.80;99.90;;;;;;5062777;28;20214;-67
2022/01/19 09:17:39;;;;;;;13.43;7.97;;;4.80;99.90;;;;;;5061950;28;20214;-66
2022/01/19 09:20:08;;;;;;;13.97;8.07;;;4.90;99.90;;;;;;5058959;28;20203;-67
2022/01/19 09:22:34;;;;;;;15.97;7.63;;;5.00;99.90;;;;;;5054881;28;20214;-66
2022/01/19 09:25:03;;;;;;;16.30;8.50;;;5.20;99.90;;;;;;5056601;28;20237;-66
2022/01/19 09:27:30;;;;;;;12.67;7.33;;;5.40;99.90;;;;;;5058945;28;20217;-67
2022/01/19 09:29:56;;;;;;;14.27;8.00;;;5.70;99.90;;;;;;5055960;28;20694;-66
2022/01/19 09:32:24;;;;;;;13.87;7.70;;;5.80;99.90;;;;;;5057099;28;20194;-67
2022/01/19 09:34:56;;;;;;;13.43;7.57;;;6.00;99.90;;;;;;5059277;28;20223;-66
2022/01/19 09:37:24;;;;;;;15.20;7.70;;;6.20;99.90;;;;;;5057709;28;20221;-66
2022/01/19 09:39:52;;;;;;;13.23;7.50;;;6.30;99.90;;;;;;5057014;28;20652;-66
2022/01/19 09:42:19;;;;;;;14.27;7.40;;;6.30;99.90;;;;;;5058105;28;20618;-68
2022/01/19 09:44:45;;;;;;;12.53;7.60;;;6.40;99.90;;;;;;5055991;28;20227;-68
2022/01/19 09:47:12;;;;;;;11.73;7.93;;;6.30;99.90;;;;;;5059478;28;20291;-67
2022/01/19 09:49:39;;;;;;;14.60;7.97;;;6.40;99.90;;;;;;5059146;28;20210;-67
2022/01/19 09:52:06;;;;;;;14.47;7.80;;;6.40;99.90;;;;;;5055499;28;20300;-66
2022/01/19 09:54:33;;;;;;;17.20;7.80;;;6.40;99.90;;;;;;5056680;28;20728;-67
2022/01/19 09:57:00;;;;;;;16.40;8.13;;;6.60;99.90;;;;;;5051663;28;20192;-69
2022/01/19 09:59:32;;;;;;;14.37;7.73;;;6.70;99.90;;;;;;5052148;28;20203;-68
2022/01/19 10:02:05;;;;;;;12.63;7.90;;;6.90;99.90;;;;;;5053067;28;20665;-69
2022/01/19 10:04:38;;;;;;;13.87;7.87;;;6.90;99.90;;;;;;5057891;28;20341;-70
2022/01/19 10:07:19;;;;;;;14.33;7.50;;;7.00;99.90;;;;;;5058989;28;20546;-68
2022/01/19 10:10:07;;;;;;;19.17;8.57;;;7.00;99.90;;;;;;5069726;28;20199;-68
2022/01/19 10:18:20;;;;;;;14.80;8.30;;;6.90;99.90;;;;;;5054764;28;20204;-69
2022/01/19 10:21:03;;;;;;;14.37;8.03;;;7.00;99.90;;;;;;5057160;28;20214;-69
2022/01/19 10:23:41;;;;;;;13.03;7.40;;;7.10;99.90;;;;;;5054915;28;21042;-73
2022/01/19 10:26:11;;;;;;;13.17;7.20;;;7.00;99.90;;;;;;5059510;28;20213;-70
2022/01/19 10:28:56;;;;;;;14.47;7.93;;;7.00;99.90;;;;;;5055697;28;20214;-70
2022/01/19 10:31:24;;;;;;;13.87;7.40;;;6.90;99.90;;;;;;5048799;28;20214;-70
2022/01/19 10:34:10;;;;;;;16.77;8.30;;;6.90;99.90;;;;;;5057050;28;20214;-67
2022/01/19 10:36:45;;;;;;;13.97;7.50;;;6.70;99.90;;;;;;5057869;28;20209;-71
2022/01/19 10:39:14;;;;;;;16.87;8.10;;;6.50;99.90;;;;;;5055518;28;20215;-69
2022/01/19 10:42:04;;;;;;;12.70;8.00;;;6.40;99.90;;;;;;5053739;28;20344;-67
2022/01/19 10:44:40;;;;;;;15.30;8.27;;;6.30;99.90;;;;;;5056975;28;20225;-69
2022/01/19 10:47:41;;;;;;;16.00;8.33;;;6.30;99.90;;;;;;5052629;28;20198;-69
2022/01/19 10:50:11;;;;;;;17.63;8.13;;;6.30;99.90;;;;;;5055881;28;21568;-71
2022/01/19 10:52:40;;;;;;;12.30;7.47;;;6.20;99.90;;;;;;5054330;28;20468;-68
2022/01/19 10:55:10;;;;;;;15.27;7.40;;;6.20;99.90;;;;;;5057127;28;20213;-69
2022/01/19 10:57:39;;;;;;;15.23;7.17;;;6.20;99.90;;;;;;5053490;28;20423;-70
2022/01/19 11:00:36;;;;;;;13.87;6.67;;;6.10;99.90;;;;;;5057487;28;21362;-73
2022/01/19 11:03:36;;;;;;;12.03;6.67;;;6.10;99.90;;;;;;5050886;28;20204;-68
2022/01/19 11:06:02;;;;;;;13.80;7.40;;;6.00;99.90;;;;;;5044145;28;20193;-66
2022/01/19 11:08:30;;;;;;;12.53;7.33;;;6.00;99.90;;;;;;5057549;28;20218;-69
2022/01/19 11:10:58;;;;;;;13.77;8.00;;;5.90;99.90;;;;;;5061134;28;20202;-69
2022/01/19 11:13:33;;;;;;;16.53;8.47;;;5.80;99.90;;;;;;5060676;28;20711;-69
2022/01/19 11:16:03;;;;;;;15.90;8.07;;;5.80;99.90;;;;;;5061985;28;20212;-70
2022/01/19 11:18:32;;;;;;;17.83;8.97;;;5.80;99.90;;;;;;5061950;28;20226;-69
2022/01/19 11:21:02;;;;;;;15.17;8.20;;;5.60;99.90;;;;;;5061690;28;20205;-69
2022/01/19 11:24:01;;;;;;;16.07;8.13;;;5.50;99.90;;;;;;5061087;28;20854;-68
2022/01/19 11:26:30;;;;;;;14.03;8.17;;;5.50;99.90;;;;;;5061225;28;20201;-71
2022/01/19 11:29:19;;;;;;;16.27;8.77;;;5.30;99.90;;;;;;5060300;28;20659;-69
2022/01/19 11:31:48;;;;;;;20.80;11.13;;;5.30;99.90;;;;;;5061376;28;20207;-69
2022/01/19 11:34:15;;;;;;;17.13;9.40;;;5.30;99.90;;;;;;5061726;28;20218;-70
2022/01/19 11:36:43;;;;;;;15.93;8.53;;;5.30;99.90;;;;;;5062169;28;20191;-69
2022/01/19 11:39:21;;;;;;;17.67;9.60;;;5.30;99.90;;;;;;5061707;28;20205;-69
2022/01/19 11:41:51;;;;;;;16.00;9.40;;;5.30;99.90;;;;;;5059935;28;20208;-72
2022/01/19 11:44:36;;;;;;;18.43;9.73;;;5.40;99.90;;;;;;5060818;28;20609;-72
2022/01/19 11:47:09;;;;;;;19.87;9.70;;;5.40;99.90;;;;;;5058490;28;21726;-71
2022/01/19 11:49:55;;;;;;;19.40;9.80;;;5.50;99.90;;;;;;5055473;28;20221;-71
2022/01/19 11:52:26;;;;;;;17.90;9.47;;;5.40;99.90;;;;;;5073420;28;20682;-72
2022/01/19 11:55:14;;;;;;;18.50;9.33;;;5.30;99.90;;;;;;5072582;28;20217;-72
2022/01/19 11:57:43;;;;;;;21.27;10.10;;;5.40;99.90;;;;;;5057755;28;20353;-71
2022/01/19 12:00:31;;;;;;;22.63;10.30;;;5.40;99.90;;;;;;5057977;28;20579;-67
2022/01/19 12:03:23;;;;;;;20.90;10.77;;;5.30;99.90;;;;;;5054722;28;20293;-66
2022/01/19 12:06:32;;;;;;;20.07;10.13;;;5.30;99.90;;;;;;5056232;28;20605;-66
2022/01/19 12:09:00;;;;;;;21.13;11.47;;;5.30;99.90;;;;;;5058005;28;20218;-67
2022/01/19 12:11:29;;;;;;;21.77;11.70;;;5.30;99.90;;;;;;5054332;28;20213;-66
2022/01/19 12:14:15;;;;;;;21.37;11.47;;;5.20;99.90;;;;;;5059152;28;20302;-67
2022/01/19 12:16:56;;;;;;;22.67;11.47;;;5.10;99.90;;;;;;5058332;28;20193;-66
2022/01/19 12:19:27;;;;;;;24.60;11.67;;;5.10;99.90;;;;;;5055786;28;20468;-66
2022/01/19 12:22:11;;;;;;;23.13;11.77;;;5.00;99.90;;;;;;5058691;28;20571;-67
2022/01/19 12:24:53;;;;;;;25.67;13.03;;;5.00;99.90;;;;;;5058468;28;20225;-66
2022/01/19 12:27:20;;;;;;;25.83;12.73;;;4.80;99.90;;;;;;5059746;28;20197;-67
2022/01/19 12:29:50;;;;;;;25.90;13.33;;;4.90;99.90;;;;;;5058468;28;20223;-66
2022/01/19 12:32:16;;;;;;;30.63;13.80;;;4.80;99.90;;;;;;5058795;28;20205;-66
2022/01/19 12:34:50;;;;;;;25.73;12.70;;;4.80;99.90;;;;;;5057235;28;20215;-66
2022/01/19 12:37:32;;;;;;;27.10;13.10;;;4.90;99.90;;;;;;5054640;28;20716;-69
2022/01/19 12:40:21;;;;;;;24.47;12.03;;;4.90;99.90;;;;;;5054366;28;20199;-67
2022/01/19 12:42:57;;;;;;;25.67;12.70;;;4.90;99.90;;;;;;5054428;28;20219;-68
2022/01/19 12:45:31;;;;;;;26.90;13.20;;;4.90;99.90;;;;;;5070130;28;20204;-66
2022/01/19 12:48:06;;;;;;;25.40;12.87;;;4.90;99.90;;;;;;5058884;28;20559;-66
2022/01/19 12:50:54;;;;;;;26.00;12.27;;;5.00;99.90;;;;;;5059192;28;20200;-66
2022/01/19 12:53:25;;;;;;;27.03;13.03;;;5.00;99.90;;;;;;5057022;28;20688;-67
2022/01/19 12:55:55;;;;;;;21.13;11.13;;;5.00;99.90;;;;;;5062045;28;20336;-67
2022/01/19 12:58:24;;;;;;;22.67;11.27;;;5.00;99.90;;;;;;5061943;28;20205;-67
2022/01/19 13:00:54;;;;;;;19.33;10.27;;;5.10;99.90;;;;;;5063819;28;20213;-67
2022/01/19 13:03:25;;;;;;;21.83;10.57;;;5.00;99.90;;;;;;5058195;28;20307;-67
2022/01/19 13:05:55;;;;;;;19.97;10.83;;;5.10;99.90;;;;;;5061950;28;20204;-68
2022/01/19 13:08:30;;;;;;;20.83;10.23;;;4.90;99.90;;;;;;5062556;28;20237;-66
2022/01/19 13:11:05;;;;;;;24.43;10.93;;;4.80;99.90;;;;;;5063081;28;20572;-66
2022/01/19 13:13:46;;;;;;;19.87;9.60;;;4.70;99.90;;;;;;5062436;28;20222;-66
2022/01/19 13:16:12;;;;;;;17.93;9.33;;;4.60;99.90;;;;;;5063332;28;20664;-67
2022/01/19 13:18:43;;;;;;;21.80;9.57;;;4.60;99.90;;;;;;5061028;28;20550;-67
2022/01/19 13:21:20;;;;;;;19.03;9.87;;;4.50;99.90;;;;;;5061841;28;20196;-67
2022/01/19 13:23:56;;;;;;;22.03;9.93;;;4.50;99.90;;;;;;5060283;28;20228;-67
2022/01/19 13:26:23;;;;;;;20.27;9.73;;;4.60;99.90;;;;;;5064094;28;20221;-66
2022/01/19 13:28:50;;;;;;;19.73;9.57;;;4.60;99.90;;;;;;5060864;28;20223;-65
2022/01/19 13:31:23;;;;;;;18.63;9.03;;;4.60;99.90;;;;;;5062111;28;20209;-66
2022/01/19 13:33:53;;;;;;;20.23;10.33;;;4.60;99.90;;;;;;5062397;28;20234;-69
2022/01/19 13:36:32;;;;;;;18.47;9.73;;;4.60;99.90;;;;;;5062238;28;20218;-66
2022/01/19 13:38:59;;;;;;;19.73;9.93;;;4.60;99.90;;;;;;5046431;28;20208;-67
2022/01/19 13:41:26;;;;;;;18.63;9.40;;;4.50;99.90;;;;;;5059290;28;20675;-66
2022/01/19 13:44:02;;;;;;;20.77;9.13;;;4.50;99.90;;;;;;5059034;28;20256;-67
2022/01/19 13:46:31;;;;;;;22.03;10.23;;;4.40;99.90;;;;;;5062158;28;20298;-67
2022/01/19 13:49:02;;;;;;;20.37;9.87;;;4.40;99.90;;;;;;5062511;28;20223;-68
2022/01/19 13:51:30;;;;;;;19.90;9.60;;;4.30;99.90;;;;;;5063555;28;20188;-67
2022/01/19 13:54:02;;;;;;;19.80;9.20;;;4.20;99.90;;;;;;5058673;28;20233;-66
2022/01/19 13:56:37;;;;;;;23.53;9.73;;;4.20;99.90;;;;;;5060900;28;20278;-67
2022/01/19 13:59:17;;;;;;;19.57;9.90;;;4.20;99.90;;;;;;5063196;28;20196;-68
2022/01/19 14:02:10;;;;;;;21.50;10.50;;;4.20;99.90;;;;;;5062394;28;20241;-66
2022/01/19 14:04:34;;;;;;;20.33;10.17;;;4.10;99.90;;;;;;5060865;28;20308;-66
2022/01/19 14:07:10;;;;;;;21.57;10.20;;;4.20;99.90;;;;;;5063587;28;20560;-65
2022/01/19 14:09:37;;;;;;;20.57;9.90;;;4.20;99.90;;;;;;5061402;28;20234;-66
2022/01/19 14:12:16;;;;;;;23.40;10.60;;;4.30;99.90;;;;;;5058432;28;20198;-66
2022/01/19 14:14:59;;;;;;;19.83;10.17;;;4.30;99.90;;;;;;5060682;28;20217;-67
2022/01/19 14:17:34;;;;;;;18.40;10.03;;;4.30;99.90;;;;;;5057789;28;20206;-67
2022/01/19 14:20:01;;;;;;;21.17;10.07;;;4.30;99.90;;;;;;5061019;28;20204;-68
2022/01/19 14:22:35;;;;;;;17.97;9.87;;;4.30;99.90;;;;;;5062564;28;20206;-67
2022/01/19 14:25:14;;;;;;;20.43;10.60;;;4.30;99.90;;;;;;5074062;28;20237;-67
2022/01/19 14:27:54;;;;;;;19.33;9.87;;;4.30;99.90;;;;;;5058672;28;20251;-66
2022/01/19 14:30:28;;;;;;;21.37;10.33;;;4.20;99.90;;;;;;5059811;28;20219;-66
2022/01/19 14:32:55;;;;;;;18.57;9.90;;;4.20;99.90;;;;;;5068757;28;20647;-67
2022/01/19 14:35:36;;;;;;;19.30;9.27;;;4.30;99.90;;;;;;5059224;28;20216;-69
2022/01/19 14:38:20;;;;;;;19.60;10.27;;;4.30;99.90;;;;;;5062005;28;20206;-69
2022/01/19 14:40:59;;;;;;;20.43;9.93;;;4.30;99.90;;;;;;5058187;28;20203;-71
2022/01/19 14:43:43;;;;;;;17.90;9.00;;;4.20;99.90;;;;;;5060158;28;20218;-68